Yaorana — FGG4533 — position and weather

sailwx.info

Track history (hours):
 
Tides and Currents Weather Stations Pressure Air Temp Water Temp Dewpoint Dewpoint Depression Visibility Wind Speed Wind Dir Waves Ship Positions

Yaorana

Last reported at 2018-May-12 12:31 UTC. Time now 2018-May-21 11:19 UTC.
Position N 47°23' W 002°33'.
Warning: this ship's position is 8 days out of date.

Length 11 m.

Type: Pleasure craft. MMSI: 227015440.

Date/timePositionNaut miles runAvg speedWind from/ knotsBaromVisibWave heightAir tempDewpointWater temp
2018-May-12 12:31N 47°23' W 002°33'0 0.0
2018-May-12 12:30N 47°23' W 002°33'2 4.3
2018-May-12 11:58N 47°25' W 002°33'1 3.0
2018-May-12 11:30N 47°26' W 002°35'2 4.7
2018-May-12 11:00N 47°27' W 002°38'3 5.4
2018-May-12 10:30N 47°27' W 002°42'2 4.8
2018-May-12 10:00N 47°28' W 002°45'3 5.6
2018-May-12 09:30N 47°28' W 002°49'3 5.9
2018-May-12 09:00N 47°29' W 002°54'3 6.0
2018-May-12 08:30N 47°31' W 002°57'2 4.2
2018-May-12 08:00N 47°32' W 002°60'2 3.7
2018-May-12 07:30N 47°34' W 003°01'1 0.1
2018-May-11 18:38N 47°35' W 003°01'0 0.0
2018-May-11 18:29N 47°35' W 003°01'0 0.0
2018-May-11 17:59N 47°35' W 003°01'0 0.0
2018-May-11 17:29N 47°35' W 003°01'0 0.0
2018-May-11 16:59N 47°35' W 003°01'1 1.2
2018-May-11 16:30N 47°35' W 003°01'3 5.7
2018-May-11 16:00N 47°32' W 002°60'3 5.4
2018-May-11 15:30N 47°30' W 002°58'3 5.8
2018-May-11 15:00N 47°28' W 002°55'4 6.9
2018-May-11 14:25N 47°24' W 002°52'8 2.1
2018-May-11 10:27N 47°23' W 003°04'3 6.5
2018-May-11 10:00N 47°25' W 003°08'3 6.6
2018-May-11 09:30N 47°26' W 003°12'3 6.4
2018-May-11 08:59N 47°28' W 003°17'3 6.5
2018-May-11 08:30N 47°28' W 003°21'2 3.5
2018-May-11 08:00N 47°30' W 003°22'3 5.6
2018-May-11 07:30N 47°33' W 003°20'2 3.9
2018-May-11 07:00N 47°35' W 003°21'3 5.4
2018-May-11 06:30N 47°35' W 003°25'3 5.1
2018-May-11 06:00N 47°35' W 003°29'3 5.9
2018-May-11 05:30N 47°35' W 003°33'3 6.2
2018-May-11 04:58N 47°34' W 003°38'7 0.9
2018-May-10 20:56N 47°41' W 003°42'2 3.8
2018-May-10 20:30N 47°42' W 003°40'2 4.7
2018-May-10 19:59N 47°43' W 003°38'2 4.5
2018-May-10 19:30N 47°45' W 003°35'2 4.6
2018-May-10 19:00N 47°43' W 003°33'2 4.9
2018-May-10 18:30N 47°42' W 003°30'2 3.8
2018-May-10 18:00N 47°41' W 003°27'3 5.2
2018-May-10 17:30N 47°39' W 003°25'2 4.9
2018-May-10 17:00N 47°38' W 003°22'3 5.2
2018-May-10 16:30N 47°36' W 003°19'3 5.3
2018-May-10 16:00N 47°34' W 003°16'3 5.5
2018-May-10 15:30N 47°32' W 003°13'3 5.3
2018-May-10 15:00N 47°30' W 003°11'3 5.2
2018-May-10 14:30N 47°28' W 003°09'3 5.0
2018-May-10 14:00N 47°26' W 003°07'2 3.2
2018-May-10 13:27N 47°26' W 003°04'2 4.0
2018-May-10 13:00N 47°27' W 003°02'4 7.5
2018-May-10 12:30N 47°31' W 003°02'3 5.9
2018-May-10 12:00N 47°34' W 003°01'0 0.9
2018-May-10 11:29N 47°33' W 003°00'2 3.8
2018-May-10 10:58N 47°35' W 003°01'0 0.0
2018-May-10 10:28N 47°35' W 003°01'0 0.0
2018-May-10 09:58N 47°35' W 003°01'0 0.0
2018-May-10 09:28N 47°35' W 003°01'0 0.0
2018-May-10 08:58N 47°35' W 003°01'0 0.0
2018-May-10 08:28N 47°35' W 003°01'0 0.0
2018-May-10 07:59N 47°35' W 003°01'0 0.0
2018-May-09 14:17N 47°35' W 003°01'0 0.0
2018-May-09 14:00N 47°35' W 003°01'0 0.1
2018-May-09 13:30N 47°35' W 003°01'3 5.3
2018-May-09 13:00N 47°33' W 003°00'15 4.6
2018-May-09 09:46N 47°24' W 002°42'1 5.1
2018-May-09 09:30N 47°24' W 002°40'3 5.1
2018-May-09 08:58N 47°24' W 002°36'  
2018-May-05 23:52N 47°23' W 002°32'2 2.4
2018-May-05 23:08N 47°23' W 002°35'  
Track history (hours):
 
Tides and Currents Weather Stations Pressure Air Temp Water Temp Dewpoint Dewpoint Depression Visibility Wind Speed Wind Dir Waves Ship Positions

Yaorana

Last reported at 2018-May-12 12:31 UTC. Time now 2018-May-21 11:19 UTC.
Position N 47°23' W 002°33'.
Warning: this ship's position is 8 days out of date.

Length 11 m.

Type: Pleasure craft. MMSI: 227015440.

Date/timePositionNaut miles runAvg speedWind from/ knotsBaromVisibWave heightAir tempDewpointWater temp
2018-May-12 12:31N 47°23' W 002°33'0 0.0
2018-May-12 12:30N 47°23' W 002°33'2 4.3
2018-May-12 11:58N 47°25' W 002°33'1 3.0
2018-May-12 11:30N 47°26' W 002°35'2 4.7
2018-May-12 11:00N 47°27' W 002°38'3 5.4
2018-May-12 10:30N 47°27' W 002°42'2 4.8
2018-May-12 10:00N 47°28' W 002°45'3 5.6
2018-May-12 09:30N 47°28' W 002°49'3 5.9
2018-May-12 09:00N 47°29' W 002°54'3 6.0
2018-May-12 08:30N 47°31' W 002°57'2 4.2
2018-May-12 08:00N 47°32' W 002°60'2 3.7
2018-May-12 07:30N 47°34' W 003°01'1 0.1
2018-May-11 18:38N 47°35' W 003°01'0 0.0
2018-May-11 18:29N 47°35' W 003°01'0 0.0
2018-May-11 17:59N 47°35' W 003°01'0 0.0
2018-May-11 17:29N 47°35' W 003°01'0 0.0
2018-May-11 16:59N 47°35' W 003°01'1 1.2
2018-May-11 16:30N 47°35' W 003°01'3 5.7
2018-May-11 16:00N 47°32' W 002°60'3 5.4
2018-May-11 15:30N 47°30' W 002°58'3 5.8
2018-May-11 15:00N 47°28' W 002°55'4 6.9
2018-May-11 14:25N 47°24' W 002°52'8 2.1
2018-May-11 10:27N 47°23' W 003°04'3 6.5
2018-May-11 10:00N 47°25' W 003°08'3 6.6
2018-May-11 09:30N 47°26' W 003°12'3 6.4
2018-May-11 08:59N 47°28' W 003°17'3 6.5
2018-May-11 08:30N 47°28' W 003°21'2 3.5
2018-May-11 08:00N 47°30' W 003°22'3 5.6
2018-May-11 07:30N 47°33' W 003°20'2 3.9
2018-May-11 07:00N 47°35' W 003°21'3 5.4
2018-May-11 06:30N 47°35' W 003°25'3 5.1
2018-May-11 06:00N 47°35' W 003°29'3 5.9
2018-May-11 05:30N 47°35' W 003°33'3 6.2
2018-May-11 04:58N 47°34' W 003°38'7 0.9
2018-May-10 20:56N 47°41' W 003°42'2 3.8
2018-May-10 20:30N 47°42' W 003°40'2 4.7
2018-May-10 19:59N 47°43' W 003°38'2 4.5
2018-May-10 19:30N 47°45' W 003°35'2 4.6
2018-May-10 19:00N 47°43' W 003°33'2 4.9
2018-May-10 18:30N 47°42' W 003°30'2 3.8
2018-May-10 18:00N 47°41' W 003°27'3 5.2
2018-May-10 17:30N 47°39' W 003°25'2 4.9
2018-May-10 17:00N 47°38' W 003°22'3 5.2
2018-May-10 16:30N 47°36' W 003°19'3 5.3
2018-May-10 16:00N 47°34' W 003°16'3 5.5
2018-May-10 15:30N 47°32' W 003°13'3 5.3
2018-May-10 15:00N 47°30' W 003°11'3 5.2
2018-May-10 14:30N 47°28' W 003°09'3 5.0
2018-May-10 14:00N 47°26' W 003°07'2 3.2
2018-May-10 13:27N 47°26' W 003°04'2 4.0
2018-May-10 13:00N 47°27' W 003°02'4 7.5
2018-May-10 12:30N 47°31' W 003°02'3 5.9
2018-May-10 12:00N 47°34' W 003°01'0 0.9
2018-May-10 11:29N 47°33' W 003°00'2 3.8
2018-May-10 10:58N 47°35' W 003°01'0 0.0
2018-May-10 10:28N 47°35' W 003°01'0 0.0
2018-May-10 09:58N 47°35' W 003°01'0 0.0
2018-May-10 09:28N 47°35' W 003°01'0 0.0
2018-May-10 08:58N 47°35' W 003°01'0 0.0
2018-May-10 08:28N 47°35' W 003°01'0 0.0
2018-May-10 07:59N 47°35' W 003°01'0 0.0
2018-May-09 14:17N 47°35' W 003°01'0 0.0
2018-May-09 14:00N 47°35' W 003°01'0 0.1
2018-May-09 13:30N 47°35' W 003°01'3 5.3
2018-May-09 13:00N 47°33' W 003°00'15 4.6
2018-May-09 09:46N 47°24' W 002°42'1 5.1
2018-May-09 09:30N 47°24' W 002°40'3 5.1
2018-May-09 08:58N 47°24' W 002°36'  
2018-May-05 23:52N 47°23' W 002°32'2 2.4
2018-May-05 23:08N 47°23' W 002°35'  

Dump ship's entire track history